Snel-info
Kleurcode:
Geel
Er mag gevlogen worden.
Voorzichtigheid geboden!
Laatste update: 23/09/2017
Kleurcode informatie

Grasmaaien:

Geen maaibeurten gepland.

Volgende vliegdagen:

  • wo 1 november : Allerheiligen
  • wo 15 november : Dag vd Dynastie
  • ma 25 december : Kerstmis
Alle extra vliegdagen

Weersituatie op PMF:

5_Jets_over_Pampa_2014_097_DirkVL.jpg

Huidige weersituatie

Huidig weerbeeld in Kleine Brogel, Belgium
Huidige wind in Kleine Brogel, Belgium

Dit is het bericht voor Kleine Brogel, Belgium en werd 17 minuten geleden gemaakt.
De wind waaide met een snelheid van 1.5 meter per seconde (5.6 km/h) uit het noordoosten (050°).
De temperatuur was 10 °C. De atmosferische druk was 1021 hPa. De relative luchtvochtigheid was 100.0%.
Het was zwaar bewolkt op een hoogte van 30 meter. Het algemene zicht was 400 meter. Momenteel mist.

De onbewerkte METAR gegevens waarop dit bericht is gebaseerd zijn:
EBBL 260325Z 05003KT 0400 FG BKN001 10/10 Q1021 RED


Opmerking:
De wind blijkt op PMF meestal iets krachtiger te waaien dan op Kleine Brogel. De windrichting klopt dan weer wel.




KMI

De weersvoorspellingen van het KMI vind je via deze link.


Buienradar

Op www.buienradar.nl kun je zelf zien waar het nu en de komende uren regent.